createdAt,value
2022-09-07T00:00:02.279Z,16.70
2022-09-07T00:02:04.198Z,16.88
2022-09-07T00:04:06.153Z,16.96
2022-09-07T00:06:10.481Z,17.12
2022-09-07T00:08:12.743Z,17.24
2022-09-07T00:10:14.429Z,17.32
2022-09-07T00:12:16.158Z,17.41
2022-09-07T00:14:17.832Z,17.48
2022-09-07T00:16:22.838Z,17.47
2022-09-07T00:18:25.196Z,17.51
2022-09-07T00:20:27.051Z,17.53
2022-09-07T00:22:28.798Z,17.55
2022-09-07T00:24:31.054Z,17.57
2022-09-07T00:26:32.746Z,17.58
2022-09-07T00:28:34.922Z,17.57
2022-09-07T00:30:41.812Z,17.56
2022-09-07T00:32:43.534Z,17.56
2022-09-07T00:34:45.222Z,17.55
2022-09-07T00:36:47.082Z,17.55
2022-09-07T00:38:49.236Z,17.53
2022-09-07T00:40:50.964Z,17.54
2022-09-07T00:42:52.703Z,17.45
2022-09-07T00:45:03.207Z,17.46
2022-09-07T00:47:12.542Z,17.46
2022-09-07T00:49:18.544Z,17.49
2022-09-07T00:51:33.770Z,17.49
2022-09-07T00:53:40.018Z,17.55
2022-09-07T00:55:43.269Z,17.54
2022-09-07T00:57:49.266Z,17.53
2022-09-07T00:59:52.986Z,17.55
2022-09-07T01:01:54.812Z,17.55
2022-09-07T01:03:57.877Z,17.57
2022-09-07T01:06:11.555Z,17.60
2022-09-07T01:08:13.952Z,17.54
2022-09-07T01:10:16.018Z,17.52
2022-09-07T01:12:17.713Z,17.53
2022-09-07T01:14:22.782Z,17.51
2022-09-07T01:16:39.562Z,17.52
2022-09-07T01:18:58.548Z,17.54
2022-09-07T01:21:09.010Z,17.51
2022-09-07T01:23:38.308Z,17.52
2022-09-07T01:26:10.850Z,17.48
2022-09-07T01:28:23.635Z,17.46
2022-09-07T01:30:26.006Z,17.46
2022-09-07T01:32:49.429Z,17.47
2022-09-07T01:34:53.411Z,17.46
2022-09-07T01:37:16.542Z,17.47
2022-09-07T01:39:19.851Z,17.37
2022-09-07T01:41:33.637Z,17.30
2022-09-07T01:44:02.803Z,17.29
2022-09-07T01:46:10.212Z,17.30
2022-09-07T01:48:15.183Z,17.30
2022-09-07T01:50:19.233Z,17.29
2022-09-07T01:52:34.112Z,17.32
2022-09-07T01:55:01.395Z,17.30
2022-09-07T01:57:07.786Z,17.28
2022-09-07T01:59:18.866Z,17.28
2022-09-07T02:01:22.381Z,17.25
2022-09-07T02:03:53.783Z,17.24
2022-09-07T02:06:04.652Z,17.22
2022-09-07T02:08:23.108Z,17.19
2022-09-07T02:10:29.145Z,17.18
2022-09-07T02:13:09.680Z,17.19
2022-09-07T02:15:15.444Z,17.15
2022-09-07T02:17:19.841Z,17.14
2022-09-07T02:19:22.637Z,17.13
2022-09-07T02:21:28.654Z,17.12
2022-09-07T02:23:34.187Z,17.06
2022-09-07T02:25:48.281Z,17.06
2022-09-07T02:27:50.571Z,17.02
2022-09-07T02:29:52.576Z,16.96
2022-09-07T02:31:54.261Z,16.97
2022-09-07T02:33:56.326Z,16.96
2022-09-07T02:35:58.558Z,16.96
2022-09-07T02:38:05.939Z,16.90
2022-09-07T02:40:08.758Z,16.73
2022-09-07T02:42:10.521Z,16.74
2022-09-07T02:44:34.660Z,16.71
2022-09-07T02:47:15.206Z,16.64
2022-09-07T02:49:44.743Z,16.63
2022-09-07T02:52:01.204Z,16.67
2022-09-07T02:54:22.840Z,16.72
2022-09-07T02:56:27.479Z,16.75
2022-09-07T02:59:01.679Z,16.74
2022-09-07T03:01:15.690Z,16.80
2022-09-07T03:03:17.251Z,16.82
2022-09-07T03:05:26.937Z,16.83
2022-09-07T03:07:44.017Z,16.83
2022-09-07T03:09:50.219Z,16.84
2022-09-07T03:11:52.015Z,16.85
2022-09-07T03:14:00.054Z,16.87
2022-09-07T03:16:02.062Z,16.87
2022-09-07T03:18:03.915Z,16.88
2022-09-07T03:20:05.858Z,16.82
2022-09-07T03:22:07.619Z,16.83
2022-09-07T03:24:09.428Z,16.82
2022-09-07T03:26:23.137Z,16.83
2022-09-07T03:28:24.921Z,16.59
2022-09-07T03:30:26.840Z,16.36
2022-09-07T03:32:33.652Z,16.29
2022-09-07T03:34:36.342Z,16.20
2022-09-07T03:36:38.097Z,16.07
2022-09-07T03:38:39.997Z,16.09
2022-09-07T03:40:41.660Z,16.13
2022-09-07T03:42:43.481Z,16.12
2022-09-07T03:44:45.362Z,16.20
2022-09-07T03:46:47.079Z,16.26
2022-09-07T03:48:50.416Z,16.30
2022-09-07T03:51:06.738Z,16.33
2022-09-07T03:53:08.433Z,16.34
2022-09-07T03:55:10.405Z,16.34
2022-09-07T03:57:12.588Z,16.01
2022-09-07T03:59:14.314Z,15.66
2022-09-07T04:01:18.838Z,15.67
2022-09-07T04:03:20.661Z,15.81
2022-09-07T04:05:22.511Z,15.57
2022-09-07T04:07:24.195Z,15.19
2022-09-07T04:09:25.851Z,14.60
2022-09-07T04:11:27.533Z,14.50
2022-09-07T04:13:30.315Z,14.46
2022-09-07T04:15:32.456Z,14.65
2022-09-07T04:17:34.093Z,14.80
2022-09-07T04:19:35.988Z,15.02
2022-09-07T04:21:37.689Z,15.20
2022-09-07T04:23:40.597Z,15.39
2022-09-07T04:25:49.112Z,15.57
2022-09-07T04:27:50.867Z,15.70
2022-09-07T04:29:52.550Z,15.86
2022-09-07T04:31:54.288Z,15.95
2022-09-07T04:33:56.231Z,16.07
2022-09-07T04:36:02.406Z,16.15
2022-09-07T04:38:04.598Z,16.23
2022-09-07T04:40:06.630Z,16.30
2022-09-07T04:42:08.292Z,16.38
2022-09-07T04:44:13.635Z,16.24
2022-09-07T04:46:24.013Z,15.82
2022-09-07T04:48:25.765Z,15.35
2022-09-07T04:50:27.443Z,14.85
2022-09-07T04:52:29.235Z,14.66
2022-09-07T04:54:31.104Z,14.70
2022-09-07T04:56:33.069Z,14.88
2022-09-07T04:58:36.400Z,15.18
2022-09-07T05:00:39.316Z,15.35
2022-09-07T05:02:41.571Z,15.40
2022-09-07T05:04:43.388Z,15.49
2022-09-07T05:06:45.101Z,15.63
2022-09-07T05:08:48.977Z,15.85
2022-09-07T05:10:51.886Z,15.86
2022-09-07T05:12:53.606Z,16.00
2022-09-07T05:14:55.273Z,16.07
2022-09-07T05:16:57.186Z,16.12
2022-09-07T05:19:01.387Z,16.04
2022-09-07T05:21:13.543Z,15.93
2022-09-07T05:23:15.442Z,15.96
2022-09-07T05:25:17.135Z,16.05
2022-09-07T05:27:18.967Z,16.11
2022-09-07T05:31:43.062Z,16.50
2022-09-07T05:36:15.221Z,16.83
2022-09-07T05:38:16.826Z,16.95
2022-09-07T05:40:18.598Z,17.10
2022-09-07T05:42:20.244Z,17.23
2022-09-07T05:46:44.222Z,17.51
2022-09-07T05:48:46.031Z,17.67
2022-09-07T05:50:53.729Z,17.81
2022-09-07T05:52:55.469Z,17.90
2022-09-07T05:55:13.036Z,17.93
2022-09-07T05:57:15.147Z,17.94
2022-09-07T05:59:16.985Z,18.00
2022-09-07T06:01:18.951Z,18.06
2022-09-07T06:03:20.844Z,18.15
2022-09-07T06:05:22.970Z,18.04
2022-09-07T06:07:24.688Z,17.95
2022-09-07T06:09:30.360Z,18.07
2022-09-07T06:11:32.615Z,18.07
2022-09-07T06:13:34.897Z,18.16
2022-09-07T06:15:36.655Z,18.31
2022-09-07T06:17:38.830Z,18.42
2022-09-07T06:19:40.476Z,18.50
2022-09-07T06:21:42.192Z,18.38
2022-09-07T06:23:44.298Z,18.16
2022-09-07T06:25:49.802Z,18.24
2022-09-07T06:27:54.061Z,18.39
2022-09-07T06:29:56.239Z,18.57
2022-09-07T06:34:19.674Z,18.74
2022-09-07T06:36:23.282Z,18.77
2022-09-07T06:38:29.917Z,18.86
2022-09-07T06:40:34.478Z,18.85
2022-09-07T06:42:36.182Z,18.96
2022-09-07T06:44:37.835Z,19.07
2022-09-07T06:49:01.212Z,18.75
2022-09-07T06:51:14.426Z,18.37
2022-09-07T06:55:45.285Z,18.45
2022-09-07T06:57:46.995Z,18.46
2022-09-07T06:59:48.672Z,18.31
2022-09-07T07:01:50.324Z,18.15
2022-09-07T07:03:53.345Z,17.92
2022-09-07T07:05:56.248Z,17.70
2022-09-07T07:07:58.129Z,17.79
2022-09-07T07:09:59.799Z,17.94
2022-09-07T07:12:01.493Z,18.22
2022-09-07T07:14:03.415Z,18.45
2022-09-07T07:16:13.298Z,18.72
2022-09-07T07:18:30.902Z,18.60
2022-09-07T07:20:32.749Z,18.70
2022-09-07T07:22:49.699Z,18.68
2022-09-07T07:24:51.471Z,18.88
2022-09-07T07:26:53.290Z,19.14
2022-09-07T07:31:06.070Z,19.74
2022-09-07T07:33:11.070Z,19.98
2022-09-07T07:35:13.267Z,20.18
2022-09-07T07:37:16.023Z,20.33
2022-09-07T07:41:56.454Z,20.50
2022-09-07T07:44:00.766Z,20.31
2022-09-07T07:46:05.547Z,20.35
2022-09-07T07:48:07.903Z,20.43
2022-09-07T07:53:41.157Z,20.42
2022-09-07T07:54:58.104Z,20.50
2022-09-07T07:56:59.754Z,20.50
2022-09-07T07:59:01.761Z,20.46
2022-09-07T08:01:12.262Z,20.58
2022-09-07T08:03:13.984Z,20.62
2022-09-07T08:05:17.167Z,20.69
2022-09-07T08:07:19.423Z,20.78
2022-09-07T08:09:21.101Z,20.82
2022-09-07T08:11:23.239Z,20.76
2022-09-07T08:13:26.113Z,20.57
2022-09-07T08:15:27.744Z,20.53
2022-09-07T08:17:29.648Z,20.55
2022-09-07T08:19:31.215Z,20.18
2022-09-07T08:21:32.828Z,19.96
2022-09-07T08:23:34.921Z,19.83
2022-09-07T08:25:36.740Z,20.05
2022-09-07T08:27:38.302Z,20.20
2022-09-07T08:29:39.915Z,20.34
2022-09-07T08:31:41.625Z,20.60
2022-09-07T08:33:43.424Z,20.92
2022-09-07T08:36:02.871Z,21.24
2022-09-07T08:38:04.521Z,21.56
2022-09-07T08:40:06.610Z,21.79
2022-09-07T08:42:19.514Z,21.97
2022-09-07T08:44:27.090Z,22.06
2022-09-07T08:46:51.942Z,22.16
2022-09-07T08:48:54.427Z,22.40
2022-09-07T08:51:05.818Z,22.50
2022-09-07T08:53:18.401Z,22.56
2022-09-07T08:55:36.703Z,22.76
2022-09-07T08:57:42.035Z,22.48
2022-09-07T08:59:49.328Z,22.36
2022-09-07T09:04:27.965Z,22.04
2022-09-07T09:06:58.818Z,22.25
2022-09-07T09:09:32.295Z,22.44
2022-09-07T09:11:52.413Z,22.43
2022-09-07T09:14:10.301Z,22.16
2022-09-07T09:16:23.907Z,21.84
2022-09-07T09:18:42.975Z,21.65
2022-09-07T09:20:49.922Z,22.03
2022-09-07T09:22:52.669Z,22.05
2022-09-07T09:25:23.513Z,22.02
2022-09-07T09:27:25.131Z,22.30
2022-09-07T09:29:26.749Z,22.56
2022-09-07T09:31:33.944Z,22.68
2022-09-07T09:33:35.886Z,22.48
2022-09-07T09:35:38.550Z,22.31
2022-09-07T09:37:41.560Z,22.36
2022-09-07T09:39:44.749Z,22.60
2022-09-07T09:41:46.498Z,22.78
2022-09-07T09:43:58.243Z,23.07
2022-09-07T09:46:15.895Z,23.35
2022-09-07T09:48:32.860Z,23.58
2022-09-07T09:53:00.791Z,24.03
2022-09-07T09:55:30.133Z,23.77
2022-09-07T10:00:29.217Z,23.37
2022-09-07T10:04:55.193Z,23.90
2022-09-07T10:07:00.759Z,24.08
2022-09-07T10:09:02.568Z,24.24
2022-09-07T10:11:09.097Z,24.30
2022-09-07T10:13:21.267Z,24.42
2022-09-07T10:15:29.976Z,24.51
2022-09-07T10:17:36.965Z,24.56
2022-09-07T10:19:41.581Z,24.28
2022-09-07T10:21:43.737Z,23.81
2022-09-07T10:23:45.385Z,23.62
2022-09-07T10:25:47.913Z,23.55
2022-09-07T10:28:21.184Z,23.25
2022-09-07T10:30:22.925Z,23.24
2022-09-07T10:32:52.989Z,23.26
2022-09-07T10:34:57.585Z,23.74
2022-09-07T10:37:03.578Z,23.98
2022-09-07T10:39:11.230Z,24.11
2022-09-07T10:41:13.480Z,24.28
2022-09-07T10:43:43.893Z,24.02
2022-09-07T10:46:07.333Z,23.97
2022-09-07T10:48:26.067Z,24.16
2022-09-07T10:50:51.640Z,24.45
2022-09-07T10:53:40.113Z,24.69
2022-09-07T10:55:51.088Z,24.93
2022-09-07T10:58:01.959Z,25.07
2022-09-07T11:00:10.012Z,25.18
2022-09-07T11:02:29.374Z,25.25
2022-09-07T11:04:44.483Z,25.32
2022-09-07T11:06:53.041Z,25.36
2022-09-07T11:09:17.325Z,25.50
2022-09-07T11:14:13.496Z,25.73
2022-09-07T11:23:53.023Z,25.96
2022-09-07T11:26:01.778Z,25.75
2022-09-07T11:28:41.781Z,25.54
2022-09-07T11:30:49.975Z,25.24
2022-09-07T11:32:58.117Z,25.11
2022-09-07T11:35:15.848Z,25.05
2022-09-07T11:37:46.580Z,24.98
2022-09-07T11:40:06.403Z,24.49
2022-09-07T11:44:47.984Z,24.82
2022-09-07T11:46:55.851Z,24.88
2022-09-07T11:48:58.091Z,24.71
2022-09-07T11:51:03.101Z,24.64
2022-09-07T11:53:15.321Z,24.80
2022-09-07T11:55:38.610Z,25.06
2022-09-07T11:58:05.346Z,25.12
2022-09-07T12:00:28.240Z,24.94
2022-09-07T12:03:02.732Z,25.08
2022-09-07T12:05:09.377Z,25.36
2022-09-07T12:07:32.060Z,25.28
2022-09-07T12:10:07.616Z,25.51
2022-09-07T12:12:11.826Z,25.74
2022-09-07T12:14:31.856Z,25.90
2022-09-07T12:16:48.317Z,26.05
2022-09-07T12:18:52.907Z,26.17
2022-09-07T12:20:54.921Z,26.27
2022-09-07T12:23:05.499Z,26.31
2022-09-07T12:25:17.880Z,26.31
2022-09-07T12:27:22.523Z,26.34
2022-09-07T12:29:25.972Z,26.26
2022-09-07T12:31:57.589Z,26.22
2022-09-07T12:34:33.609Z,26.20
2022-09-07T12:36:35.140Z,26.08
2022-09-07T12:39:01.662Z,26.19
2022-09-07T12:41:24.668Z,25.64
2022-09-07T12:43:45.024Z,25.48
2022-09-07T12:45:48.895Z,25.48
2022-09-07T12:47:59.959Z,25.47
2022-09-07T12:50:21.244Z,25.39
2022-09-07T12:52:34.926Z,25.54
2022-09-07T12:54:45.534Z,25.75
2022-09-07T12:59:38.460Z,25.65
2022-09-07T13:02:04.731Z,25.66
2022-09-07T13:04:15.407Z,25.32
2022-09-07T13:09:28.775Z,25.11
2022-09-07T13:11:33.863Z,25.37
2022-09-07T13:16:06.304Z,25.02
2022-09-07T13:18:31.566Z,24.96
2022-09-07T13:20:37.769Z,25.05
2022-09-07T13:22:41.932Z,24.89
2022-09-07T13:24:53.404Z,24.96
2022-09-07T13:27:00.972Z,25.04
2022-09-07T13:29:03.582Z,25.17
2022-09-07T13:31:14.670Z,25.41
2022-09-07T13:33:25.286Z,25.65
2022-09-07T13:35:27.515Z,25.75
2022-09-07T13:37:29.844Z,25.87
2022-09-07T13:39:45.349Z,25.94
2022-09-07T13:41:56.060Z,26.04
2022-09-07T13:44:02.190Z,26.19
2022-09-07T13:46:31.174Z,26.33
2022-09-07T13:48:39.678Z,26.43
2022-09-07T13:50:53.242Z,26.53
2022-09-07T13:53:12.959Z,26.56
2022-09-07T13:55:45.531Z,26.57
2022-09-07T13:58:10.229Z,26.63
2022-09-07T14:00:16.152Z,26.64
2022-09-07T14:02:28.173Z,26.64
2022-09-07T14:04:41.453Z,26.69
2022-09-07T14:06:43.226Z,26.72
2022-09-07T14:08:51.129Z,26.80
2022-09-07T14:10:52.766Z,26.82
2022-09-07T14:13:14.101Z,26.72
2022-09-07T14:15:31.977Z,26.65
2022-09-07T14:17:33.878Z,26.73
2022-09-07T14:19:37.860Z,26.89
2022-09-07T14:21:40.211Z,26.96
2022-09-07T14:23:41.885Z,26.74
2022-09-07T14:28:05.118Z,26.90
2022-09-07T14:30:28.395Z,27.00
2022-09-07T14:32:32.086Z,26.87
2022-09-07T14:34:37.679Z,26.99
2022-09-07T14:36:45.654Z,27.08
2022-09-07T14:39:04.428Z,27.17
2022-09-07T14:41:10.124Z,27.26
2022-09-07T14:43:30.230Z,27.32
2022-09-07T14:45:33.697Z,27.33
2022-09-07T14:47:35.482Z,27.29
2022-09-07T14:49:37.681Z,27.33
2022-09-07T14:51:43.536Z,27.31
2022-09-07T14:53:52.570Z,27.27
2022-09-07T14:56:02.171Z,27.30
2022-09-07T14:58:15.853Z,27.44
2022-09-07T15:00:20.605Z,27.51
2022-09-07T15:02:32.327Z,27.53
2022-09-07T15:04:34.358Z,27.56
2022-09-07T15:09:07.053Z,27.72
2022-09-07T15:11:37.431Z,27.80
2022-09-07T15:13:41.741Z,27.76
2022-09-07T15:15:46.778Z,27.73
2022-09-07T15:17:48.849Z,27.80
2022-09-07T15:19:50.973Z,27.78
2022-09-07T15:21:52.525Z,27.75
2022-09-07T15:23:57.002Z,27.78
2022-09-07T15:25:58.639Z,27.84
2022-09-07T15:28:00.237Z,27.89
2022-09-07T15:30:01.852Z,27.96
2022-09-07T15:32:09.266Z,27.99
2022-09-07T15:34:20.595Z,27.98
2022-09-07T15:36:22.290Z,27.91
2022-09-07T15:41:21.759Z,27.81
2022-09-07T15:43:21.590Z,27.75
2022-09-07T15:45:24.736Z,27.83
2022-09-07T15:49:51.331Z,27.88
2022-09-07T15:52:08.653Z,27.95
2022-09-07T15:54:13.123Z,28.02
2022-09-07T15:56:17.241Z,28.08
2022-09-07T15:58:21.501Z,28.11
2022-09-07T16:00:23.154Z,28.09
2022-09-07T16:04:46.732Z,27.95
2022-09-07T16:06:48.572Z,27.80
2022-09-07T16:08:51.809Z,27.73
2022-09-07T16:10:54.289Z,27.56
2022-09-07T16:13:01.224Z,27.44
2022-09-07T16:15:05.305Z,27.23
2022-09-07T16:19:29.497Z,27.01
2022-09-07T16:21:31.058Z,26.81
2022-09-07T16:23:32.827Z,26.72
2022-09-07T16:25:35.233Z,26.62
2022-09-07T16:27:36.929Z,26.58
2022-09-07T16:29:38.905Z,26.46
2022-09-07T16:32:43.933Z,26.32
2022-09-07T16:34:02.849Z,26.05
2022-09-07T16:36:16.270Z,25.85
2022-09-07T16:40:42.953Z,25.34
2022-09-07T16:42:45.377Z,25.20
2022-09-07T16:44:47.180Z,25.10
2022-09-07T16:46:48.767Z,24.92
2022-09-07T16:48:51.470Z,24.77
2022-09-07T16:51:01.604Z,24.62
2022-09-07T16:53:04.516Z,24.51
2022-09-07T16:55:06.691Z,24.44
2022-09-07T16:57:08.416Z,24.36
2022-09-07T16:59:16.071Z,24.29
2022-09-07T17:01:20.296Z,24.22
2022-09-07T17:03:21.979Z,24.12
2022-09-07T17:05:23.817Z,24.04
2022-09-07T17:07:25.426Z,23.95
2022-09-07T17:09:28.641Z,23.86
2022-09-07T17:11:32.840Z,23.75
2022-09-07T17:13:36.641Z,23.68
2022-09-07T17:15:38.223Z,23.59
2022-09-07T17:17:39.859Z,23.54
2022-09-07T17:19:41.761Z,23.51
2022-09-07T17:21:43.566Z,23.52
2022-09-07T17:23:51.956Z,23.50
2022-09-07T17:26:10.782Z,23.50
2022-09-07T17:28:12.617Z,23.49
2022-09-07T17:30:16.871Z,23.48
2022-09-07T17:32:26.274Z,23.46
2022-09-07T17:34:29.864Z,23.46
2022-09-07T17:36:31.662Z,23.44
2022-09-07T17:40:55.726Z,23.39
2022-09-07T17:45:19.276Z,23.30
2022-09-07T17:47:21.358Z,23.28
2022-09-07T17:49:22.990Z,23.25
2022-09-07T17:51:26.716Z,23.21
2022-09-07T17:53:28.326Z,23.20
2022-09-07T17:55:31.662Z,23.16
2022-09-07T17:57:34.933Z,23.14
2022-09-07T18:01:58.438Z,23.07
2022-09-07T18:04:00.095Z,23.05
2022-09-07T18:06:02.922Z,23.04
2022-09-07T18:08:04.859Z,23.01
2022-09-07T18:10:07.033Z,22.98
2022-09-07T18:12:08.718Z,22.95
2022-09-07T18:14:10.332Z,22.94
2022-09-07T18:16:24.287Z,22.94
2022-09-07T18:18:26.580Z,22.92
2022-09-07T18:20:32.558Z,22.87
2022-09-07T18:22:34.581Z,22.84
2022-09-07T18:24:36.996Z,22.82
2022-09-07T18:26:39.196Z,22.79
2022-09-07T18:31:11.177Z,22.69
2022-09-07T18:33:12.927Z,22.65
2022-09-07T18:35:15.006Z,22.62
2022-09-07T18:37:16.860Z,22.61
2022-09-07T18:39:18.882Z,22.61
2022-09-07T18:41:21.190Z,22.59
2022-09-07T18:43:23.052Z,22.56
2022-09-07T18:45:28.120Z,22.54
2022-09-07T18:47:31.463Z,22.54
2022-09-07T18:49:33.207Z,22.52
2022-09-07T18:52:51.767Z,22.51
2022-09-07T18:53:56.456Z,22.43
2022-09-07T18:56:05.106Z,22.28
2022-09-07T18:58:06.678Z,22.22
2022-09-07T19:00:10.029Z,22.18
2022-09-07T19:02:12.194Z,22.17
2022-09-07T19:04:14.022Z,22.15
2022-09-07T19:06:16.068Z,22.15
2022-09-07T19:08:17.830Z,22.09
2022-09-07T19:10:19.588Z,22.09
2022-09-07T19:12:21.624Z,22.09
2022-09-07T19:14:23.260Z,21.85
2022-09-07T19:16:25.878Z,21.77
2022-09-07T19:18:27.681Z,21.64
2022-09-07T19:20:29.422Z,21.53
2022-09-07T19:22:30.997Z,21.38
2022-09-07T19:24:33.340Z,21.24
2022-09-07T19:26:37.179Z,21.13
2022-09-07T19:28:38.913Z,21.12
2022-09-07T19:30:40.553Z,21.14
2022-09-07T19:32:42.155Z,21.19
2022-09-07T19:34:45.510Z,21.05
2022-09-07T19:36:47.186Z,21.05
2022-09-07T19:38:49.243Z,20.93
2022-09-07T19:40:58.156Z,20.86
2022-09-07T19:42:59.954Z,20.83
2022-09-07T19:45:01.600Z,20.75
2022-09-07T19:47:03.350Z,20.78
2022-09-07T19:49:05.718Z,20.81
2022-09-07T19:51:10.915Z,20.86
2022-09-07T19:53:14.533Z,20.88
2022-09-07T19:55:16.294Z,20.92
2022-09-07T19:57:18.067Z,20.97
2022-09-07T19:59:20.186Z,21.05
2022-09-07T20:01:25.065Z,21.10
2022-09-07T20:03:26.832Z,21.11
2022-09-07T20:05:31.055Z,21.12
2022-09-07T20:07:32.643Z,21.12
2022-09-07T20:09:34.324Z,21.12
2022-09-07T20:11:36.510Z,21.10
2022-09-07T20:13:39.011Z,21.09
2022-09-07T20:15:42.381Z,21.10
2022-09-07T20:17:44.038Z,21.10
2022-09-07T20:19:45.616Z,21.10
2022-09-07T20:21:48.162Z,21.07
2022-09-07T20:23:50.347Z,21.06
2022-09-07T20:26:03.414Z,21.00
2022-09-07T20:28:05.029Z,20.93
2022-09-07T20:30:07.287Z,20.89
2022-09-07T20:32:09.077Z,20.89
2022-09-07T20:34:11.236Z,20.90
2022-09-07T20:36:15.366Z,20.92
2022-09-07T20:38:18.293Z,20.93
2022-09-07T20:40:19.963Z,20.92
2022-09-07T20:42:21.572Z,20.84
2022-09-07T20:44:23.569Z,20.80
2022-09-07T20:46:25.675Z,20.65
2022-09-07T20:48:27.475Z,20.28
2022-09-07T20:50:29.083Z,20.20
2022-09-07T20:52:30.676Z,20.18
2022-09-07T20:54:37.704Z,20.16
2022-09-07T20:56:39.677Z,20.06
2022-09-07T20:58:43.392Z,20.12
2022-09-07T21:00:51.021Z,20.21
2022-09-07T21:02:52.939Z,20.27
2022-09-07T21:04:54.584Z,20.27
2022-09-07T21:06:56.290Z,20.13
2022-09-07T21:08:58.258Z,19.80
2022-09-07T21:11:05.832Z,19.42
2022-09-07T21:13:07.856Z,19.43
2022-09-07T21:15:10.082Z,19.39
2022-09-07T21:17:11.626Z,19.41
2022-09-07T21:19:13.406Z,19.34
2022-09-07T21:21:19.814Z,19.39
2022-09-07T21:23:23.300Z,19.46
2022-09-07T21:25:24.930Z,19.60
2022-09-07T21:27:26.529Z,19.74
2022-09-07T21:29:28.126Z,19.86
2022-09-07T21:31:31.329Z,19.94
2022-09-07T21:33:35.362Z,19.98
2022-09-07T21:35:36.993Z,20.02
2022-09-07T21:37:38.698Z,20.05
2022-09-07T21:39:40.463Z,20.01
2022-09-07T21:41:43.292Z,19.99
2022-09-07T21:43:45.229Z,19.99
2022-09-07T21:45:46.892Z,19.99
2022-09-07T21:47:48.489Z,20.00
2022-09-07T21:49:50.302Z,20.00
2022-09-07T21:51:52.023Z,20.03
2022-09-07T21:53:58.167Z,19.64
2022-09-07T21:56:02.139Z,19.53
2022-09-07T21:58:04.092Z,19.52
2022-09-07T22:00:08.786Z,19.52
2022-09-07T22:02:11.007Z,19.49
2022-09-07T22:04:13.577Z,19.52
2022-09-07T22:06:15.536Z,19.57
2022-09-07T22:08:17.191Z,19.62
2022-09-07T22:10:18.909Z,19.64
2022-09-07T22:12:20.672Z,19.67
2022-09-07T22:14:22.367Z,19.72
2022-09-07T22:16:24.293Z,19.74
2022-09-07T22:18:26.026Z,19.81
2022-09-07T22:20:27.642Z,19.82
2022-09-07T22:22:29.387Z,19.86
2022-09-07T22:24:31.062Z,19.85
2022-09-07T22:26:37.781Z,19.85
2022-09-07T22:28:39.778Z,19.84
2022-09-07T22:30:41.352Z,19.82
2022-09-07T22:32:50.366Z,19.81
2022-09-07T22:34:51.966Z,19.79
2022-09-07T22:36:53.576Z,19.80
2022-09-07T22:38:57.315Z,19.80
2022-09-07T22:41:12.357Z,19.81
2022-09-07T22:43:13.963Z,19.80
2022-09-07T22:45:15.727Z,19.75
2022-09-07T22:47:17.335Z,19.75
2022-09-07T22:49:18.932Z,19.75
2022-09-07T22:51:20.693Z,19.70
2022-09-07T22:53:22.765Z,19.65
2022-09-07T22:55:24.312Z,19.64
2022-09-07T22:57:25.986Z,19.65
2022-09-07T22:59:27.643Z,19.64
2022-09-07T23:01:30.017Z,19.63
2022-09-07T23:03:33.441Z,19.60
2022-09-07T23:05:38.350Z,19.57
2022-09-07T23:07:39.906Z,19.55
2022-09-07T23:09:41.636Z,19.54
2022-09-07T23:11:44.347Z,19.54
2022-09-07T23:13:46.014Z,19.49
2022-09-07T23:15:47.838Z,19.47
2022-09-07T23:17:50.800Z,19.49
2022-09-07T23:19:52.428Z,19.47
2022-09-07T23:21:54.120Z,19.47
2022-09-07T23:23:58.209Z,19.48
2022-09-07T23:26:05.592Z,19.46
2022-09-07T23:28:09.876Z,19.47
2022-09-07T23:30:12.269Z,19.46
2022-09-07T23:32:13.839Z,19.43
2022-09-07T23:34:15.505Z,19.37
2022-09-07T23:36:17.990Z,19.32
2022-09-07T23:38:19.664Z,19.27
2022-09-07T23:40:21.544Z,19.24
2022-09-07T23:42:23.187Z,19.19
2022-09-07T23:44:24.885Z,19.14
2022-09-07T23:46:26.583Z,19.10
2022-09-07T23:48:28.488Z,19.11
2022-09-07T23:50:30.300Z,19.12
2022-09-07T23:52:31.949Z,19.08
2022-09-07T23:54:33.596Z,19.10
2022-09-07T23:56:37.861Z,19.13
2022-09-07T23:58:39.521Z,19.12
